sensor_id;sensor_type;location;lat;lon;timestamp;pressure;altitude;pressure_sealevel;temperature;humidity
68654;BME280;55636;51.108;13.622;2024-01-30T00:00:10;101867.09;;;2.93;53.19
68654;BME280;55636;51.108;13.622;2024-01-30T00:01:13;101875.47;;;2.92;53.08
68654;BME280;55636;51.108;13.622;2024-01-30T00:02:16;101868.47;;;2.89;53.28
68654;BME280;55636;51.108;13.622;2024-01-30T00:03:18;101870.84;;;2.92;53.13
68654;BME280;55636;51.108;13.622;2024-01-30T00:04:22;101872.03;;;2.90;53.21
68654;BME280;55636;51.108;13.622;2024-01-30T00:05:24;101871.03;;;2.91;53.17
68654;BME280;55636;51.108;13.622;2024-01-30T00:06:26;101863.19;;;2.88;53.20
68654;BME280;55636;51.108;13.622;2024-01-30T00:07:29;101867.63;;;2.89;53.35
68654;BME280;55636;51.108;13.622;2024-01-30T00:08:31;101862.31;;;2.87;53.43
68654;BME280;55636;51.108;13.622;2024-01-30T00:09:34;101864.91;;;2.89;53.22
68654;BME280;55636;51.108;13.622;2024-01-30T00:10:36;101868.66;;;2.88;53.20
68654;BME280;55636;51.108;13.622;2024-01-30T00:11:39;101864.91;;;2.89;53.23
68654;BME280;55636;51.108;13.622;2024-01-30T00:12:41;101871.38;;;2.88;53.43
68654;BME280;55636;51.108;13.622;2024-01-30T00:13:44;101871.03;;;2.83;53.40
68654;BME280;55636;51.108;13.622;2024-01-30T00:14:46;101867.44;;;2.82;53.42
68654;BME280;55636;51.108;13.622;2024-01-30T00:15:50;101864.56;;;2.84;53.52
68654;BME280;55636;51.108;13.622;2024-01-30T00:16:52;101860.97;;;2.83;53.35
68654;BME280;55636;51.108;13.622;2024-01-30T00:17:55;101859.25;;;2.82;53.49
68654;BME280;55636;51.108;13.622;2024-01-30T00:18:58;101864.06;;;2.80;53.54
68654;BME280;55636;51.108;13.622;2024-01-30T00:20:00;101859.25;;;2.82;53.72
68654;BME280;55636;51.108;13.622;2024-01-30T00:21:03;101864.88;;;2.81;53.64
68654;BME280;55636;51.108;13.622;2024-01-30T00:22:06;101864.72;;;2.82;53.58
68654;BME280;55636;51.108;13.622;2024-01-30T00:23:09;101863.19;;;2.80;53.58
68654;BME280;55636;51.108;13.622;2024-01-30T00:24:14;101862.34;;;2.79;53.63
68654;BME280;55636;51.108;13.622;2024-01-30T00:25:16;101861.31;;;2.80;53.73
68654;BME280;55636;51.108;13.622;2024-01-30T00:26:18;101865.59;;;2.83;53.49
68654;BME280;55636;51.108;13.622;2024-01-30T00:27:22;101868.63;;;2.80;53.50
68654;BME280;55636;51.108;13.622;2024-01-30T00:28:24;101859.25;;;2.74;53.72
68654;BME280;55636;51.108;13.622;2024-01-30T00:29:27;101871.53;;;2.78;53.71
68654;BME280;55636;51.108;13.622;2024-01-30T00:30:33;101864.53;;;2.75;53.67
68654;BME280;55636;51.108;13.622;2024-01-30T00:31:35;101863.69;;;2.75;53.67
68654;BME280;55636;51.108;13.622;2024-01-30T00:32:42;101866.41;;;2.75;53.78
68654;BME280;55636;51.108;13.622;2024-01-30T00:33:44;101864.53;;;2.75;53.75
68654;BME280;55636;51.108;13.622;2024-01-30T00:34:46;101859.06;;;2.75;53.69
68654;BME280;55636;51.108;13.622;2024-01-30T00:35:49;101858.03;;;2.76;53.59
68654;BME280;55636;51.108;13.622;2024-01-30T00:36:52;101865.38;;;2.76;53.51
68654;BME280;55636;51.108;13.622;2024-01-30T00:37:54;101855.50;;;2.75;53.67
68654;BME280;55636;51.108;13.622;2024-01-30T00:38:56;101864.34;;;2.69;53.92
68654;BME280;55636;51.108;13.622;2024-01-30T00:39:59;101860.44;;;2.71;53.79
68654;BME280;55636;51.108;13.622;2024-01-30T00:41:01;101856.88;;;2.71;53.66
68654;BME280;55636;51.108;13.622;2024-01-30T00:42:04;101859.59;;;2.71;53.76
68654;BME280;55636;51.108;13.622;2024-01-30T00:43:06;101857.19;;;2.68;53.87
68654;BME280;55636;51.108;13.622;2024-01-30T00:44:10;101858.91;;;2.69;53.91
68654;BME280;55636;51.108;13.622;2024-01-30T00:45:16;101859.78;;;2.69;53.85
68654;BME280;55636;51.108;13.622;2024-01-30T00:46:19;101862.50;;;2.69;53.96
68654;BME280;55636;51.108;13.622;2024-01-30T00:47:21;101853.09;;;2.64;53.85
68654;BME280;55636;51.108;13.622;2024-01-30T00:48:24;101852.09;;;2.65;53.95
68654;BME280;55636;51.108;13.622;2024-01-30T00:49:26;101854.81;;;2.65;53.91
68654;BME280;55636;51.108;13.622;2024-01-30T00:50:30;101853.09;;;2.64;53.87
68654;BME280;55636;51.108;13.622;2024-01-30T00:51:34;101856.84;;;2.63;54.04
68654;BME280;55636;51.108;13.622;2024-01-30T00:52:36;101854.13;;;2.63;53.92
68654;BME280;55636;51.108;13.622;2024-01-30T00:53:38;101855.84;;;2.64;53.83
68654;BME280;55636;51.108;13.622;2024-01-30T00:54:41;101851.38;;;2.63;53.83
68654;BME280;55636;51.108;13.622;2024-01-30T00:55:43;101856.34;;;2.59;53.92
68654;BME280;55636;51.108;13.622;2024-01-30T00:56:46;101858.22;;;2.58;53.95
68654;BME280;55636;51.108;13.622;2024-01-30T00:57:48;101857.19;;;2.59;53.99
68654;BME280;55636;51.108;13.622;2024-01-30T00:58:50;101860.78;;;2.60;53.93
68654;BME280;55636;51.108;13.622;2024-01-30T00:59:53;101858.22;;;2.58;53.82
68654;BME280;55636;51.108;13.622;2024-01-30T01:00:55;101854.13;;;2.54;54.06
68654;BME280;55636;51.108;13.622;2024-01-30T01:01:58;101858.75;;;2.54;54.14
68654;BME280;55636;51.108;13.622;2024-01-30T01:03:01;101857.69;;;2.55;54.06
68654;BME280;55636;51.108;13.622;2024-01-30T01:04:04;101858.56;;;2.55;53.93
68654;BME280;55636;51.108;13.622;2024-01-30T01:05:06;101859.22;;;2.57;53.94
68654;BME280;55636;51.108;13.622;2024-01-30T01:06:09;101857.56;;;2.56;53.98
68654;BME280;55636;51.108;13.622;2024-01-30T01:07:11;101857.38;;;2.58;53.97
68654;BME280;55636;51.108;13.622;2024-01-30T01:08:14;101860.44;;;2.55;53.99
68654;BME280;55636;51.108;13.622;2024-01-30T01:09:17;101855.84;;;2.55;54.03
68654;BME280;55636;51.108;13.622;2024-01-30T01:10:20;101858.41;;;2.57;53.83
68654;BME280;55636;51.108;13.622;2024-01-30T01:11:22;101857.56;;;2.56;53.91
68654;BME280;55636;51.108;13.622;2024-01-30T01:12:24;101852.94;;;2.57;53.93
68654;BME280;55636;51.108;13.622;2024-01-30T01:13:27;101860.28;;;2.56;53.79
68654;BME280;55636;51.108;13.622;2024-01-30T01:14:30;101854.81;;;2.56;53.90
68654;BME280;55636;51.108;13.622;2024-01-30T01:15:32;101858.56;;;2.55;53.82
68654;BME280;55636;51.108;13.622;2024-01-30T01:16:35;101853.28;;;2.54;53.92
68654;BME280;55636;51.108;13.622;2024-01-30T01:17:38;101848.84;;;2.53;53.89
68654;BME280;55636;51.108;13.622;2024-01-30T01:18:41;101855.16;;;2.53;53.85
68654;BME280;55636;51.108;13.622;2024-01-30T01:19:43;101856.19;;;2.52;53.74
68654;BME280;55636;51.108;13.622;2024-01-30T01:20:46;101860.78;;;2.52;53.96
68654;BME280;55636;51.108;13.622;2024-01-30T01:21:48;101855.31;;;2.52;53.95
68654;BME280;55636;51.108;13.622;2024-01-30T01:22:51;101856.03;;;2.54;53.87
68654;BME280;55636;51.108;13.622;2024-01-30T01:23:54;101856.19;;;2.52;54.03
68654;BME280;55636;51.108;13.622;2024-01-30T01:24:57;101851.94;;;2.50;54.05
68654;BME280;55636;51.108;13.622;2024-01-30T01:26:02;101854.66;;;2.50;54.02
68654;BME280;55636;51.108;13.622;2024-01-30T01:27:04;101859.06;;;2.51;53.98
68654;BME280;55636;51.108;13.622;2024-01-30T01:28:07;101851.94;;;2.50;53.99
68654;BME280;55636;51.108;13.622;2024-01-30T01:29:10;101856.19;;;2.52;53.84
68654;BME280;55636;51.108;13.622;2024-01-30T01:30:14;101855.69;;;2.49;53.94
68654;BME280;55636;51.108;13.622;2024-01-30T01:31:23;101855.16;;;2.45;53.96
68654;BME280;55636;51.108;13.622;2024-01-30T01:32:27;101851.41;;;2.46;53.97
68654;BME280;55636;51.108;13.622;2024-01-30T01:33:29;101848.50;;;2.48;53.86
68654;BME280;55636;51.108;13.622;2024-01-30T01:34:32;101859.41;;;2.48;53.93
68654;BME280;55636;51.108;13.622;2024-01-30T01:35:34;101858.91;;;2.44;54.04
68654;BME280;55636;51.108;13.622;2024-01-30T01:36:37;101862.31;;;2.46;54.07
68654;BME280;55636;51.108;13.622;2024-01-30T01:37:39;101857.88;;;2.45;54.03
68654;BME280;55636;51.108;13.622;2024-01-30T01:38:41;101853.28;;;2.46;54.07
68654;BME280;55636;51.108;13.622;2024-01-30T01:39:44;101857.19;;;2.43;54.06
68654;BME280;55636;51.108;13.622;2024-01-30T01:40:46;101850.72;;;2.44;53.98
68654;BME280;55636;51.108;13.622;2024-01-30T01:41:49;101857.03;;;2.45;53.93
68654;BME280;55636;51.108;13.622;2024-01-30T01:42:51;101851.59;;;2.45;53.97
68654;BME280;55636;51.108;13.622;2024-01-30T01:43:56;101855.16;;;2.45;54.06
68654;BME280;55636;51.108;13.622;2024-01-30T01:44:59;101851.59;;;2.45;53.88
68654;BME280;55636;51.108;13.622;2024-01-30T01:46:02;101849.69;;;2.45;53.94
68654;BME280;55636;51.108;13.622;2024-01-30T01:47:04;101853.13;;;2.47;54.02
68654;BME280;55636;51.108;13.622;2024-01-30T01:48:07;101857.03;;;2.45;54.01
68654;BME280;55636;51.108;13.622;2024-01-30T01:49:10;101857.88;;;2.45;53.98
68654;BME280;55636;51.108;13.622;2024-01-30T01:50:15;101852.59;;;2.43;54.05
68654;BME280;55636;51.108;13.622;2024-01-30T01:51:22;101853.97;;;2.39;54.06
68654;BME280;55636;51.108;13.622;2024-01-30T01:52:25;101860.44;;;2.38;54.24
68654;BME280;55636;51.108;13.622;2024-01-30T01:53:28;101852.94;;;2.40;53.95
68654;BME280;55636;51.108;13.622;2024-01-30T01:54:30;101847.66;;;2.39;54.10
68654;BME280;55636;51.108;13.622;2024-01-30T01:55:34;101853.97;;;2.39;54.03
68654;BME280;55636;51.108;13.622;2024-01-30T01:56:38;101842.72;;;2.34;54.09
68654;BME280;55636;51.108;13.622;2024-01-30T01:57:41;101841.00;;;2.33;54.12
68654;BME280;55636;51.108;13.622;2024-01-30T01:58:46;101845.25;;;2.36;54.25
68654;BME280;55636;51.108;13.622;2024-01-30T01:59:50;101846.28;;;2.35;54.29
68654;BME280;55636;51.108;13.622;2024-01-30T02:00:53;101845.94;;;2.30;54.28
68654;BME280;55636;51.108;13.622;2024-01-30T02:01:55;101844.22;;;2.29;54.29
68654;BME280;55636;51.108;13.622;2024-01-30T02:02:59;101845.75;;;2.31;54.25
68654;BME280;55636;51.108;13.622;2024-01-30T02:04:02;101840.13;;;2.33;54.29
68654;BME280;55636;51.108;13.622;2024-01-30T02:05:05;101850.03;;;2.34;54.13
68654;BME280;55636;51.108;13.622;2024-01-30T02:06:08;101843.56;;;2.35;54.21
68654;BME280;55636;51.108;13.622;2024-01-30T02:07:10;101856.19;;;2.36;54.07
68654;BME280;55636;51.108;13.622;2024-01-30T02:08:13;101848.16;;;2.34;54.14
68654;BME280;55636;51.108;13.622;2024-01-30T02:09:16;101848.00;;;2.36;54.10
68654;BME280;55636;51.108;13.622;2024-01-30T02:10:18;101845.25;;;2.36;54.01
68654;BME280;55636;51.108;13.622;2024-01-30T02:11:22;101838.63;;;2.38;54.02
68654;BME280;55636;51.108;13.622;2024-01-30T02:12:24;101835.72;;;2.40;53.98
68654;BME280;55636;51.108;13.622;2024-01-30T02:13:27;101832.28;;;2.38;54.18
68654;BME280;55636;51.108;13.622;2024-01-30T02:14:29;101844.91;;;2.39;54.10
68654;BME280;55636;51.108;13.622;2024-01-30T02:15:32;101836.06;;;2.37;53.93
68654;BME280;55636;51.108;13.622;2024-01-30T02:16:35;101836.06;;;2.37;54.02
68654;BME280;55636;51.108;13.622;2024-01-30T02:17:37;101831.63;;;2.36;54.21
68654;BME280;55636;51.108;13.622;2024-01-30T02:18:39;101835.56;;;2.33;54.20
68654;BME280;55636;51.108;13.622;2024-01-30T02:19:47;101837.75;;;2.30;54.35
68654;BME280;55636;51.108;13.622;2024-01-30T02:20:53;101843.22;;;2.30;54.38
68654;BME280;55636;51.108;13.622;2024-01-30T02:21:56;101827.88;;;2.29;54.35
68654;BME280;55636;51.108;13.622;2024-01-30T02:22:59;101839.81;;;2.27;54.37
68654;BME280;55636;51.108;13.622;2024-01-30T02:24:06;101832.13;;;2.31;54.37
68654;BME280;55636;51.108;13.622;2024-01-30T02:25:08;101837.94;;;2.28;54.26
68654;BME280;55636;51.108;13.622;2024-01-30T02:26:11;101829.75;;;2.28;54.31
68654;BME280;55636;51.108;13.622;2024-01-30T02:27:14;101836.03;;;2.29;54.43
68654;BME280;55636;51.108;13.622;2024-01-30T02:28:16;101837.22;;;2.26;54.25
68654;BME280;55636;51.108;13.622;2024-01-30T02:29:20;101834.84;;;2.23;54.59
68654;BME280;55636;51.108;13.622;2024-01-30T02:30:23;101835.38;;;2.26;54.50
68654;BME280;55636;51.108;13.622;2024-01-30T02:31:25;101833.50;;;2.27;54.26
68654;BME280;55636;51.108;13.622;2024-01-30T02:32:28;101834.19;;;2.29;54.26
68654;BME280;55636;51.108;13.622;2024-01-30T02:33:31;101830.44;;;2.30;54.25
68654;BME280;55636;51.108;13.622;2024-01-30T02:34:33;101833.31;;;2.29;54.20
68654;BME280;55636;51.108;13.622;2024-01-30T02:35:36;101827.88;;;2.29;54.30
68654;BME280;55636;51.108;13.622;2024-01-30T02:36:38;101836.91;;;2.29;54.25
68654;BME280;55636;51.108;13.622;2024-01-30T02:37:40;101829.56;;;2.30;54.27
68654;BME280;55636;51.108;13.622;2024-01-30T02:38:43;101838.78;;;2.29;54.29
68654;BME280;55636;51.108;13.622;2024-01-30T02:39:45;101830.28;;;2.32;54.21
68654;BME280;55636;51.108;13.622;2024-01-30T02:40:47;101820.19;;;2.32;54.19
68654;BME280;55636;51.108;13.622;2024-01-30T02:41:50;101826.50;;;2.33;54.20
68654;BME280;55636;51.108;13.622;2024-01-30T02:42:52;101828.72;;;2.29;54.40
68654;BME280;55636;51.108;13.622;2024-01-30T02:43:55;101823.28;;;2.29;54.47
68654;BME280;55636;51.108;13.622;2024-01-30T02:44:57;101826.66;;;2.31;54.12
68654;BME280;55636;51.108;13.622;2024-01-30T02:45:59;101829.56;;;2.30;54.13
68654;BME280;55636;51.108;13.622;2024-01-30T02:47:03;101825.84;;;2.31;54.30
68654;BME280;55636;51.108;13.622;2024-01-30T02:48:06;101824.63;;;2.33;54.27
68654;BME280;55636;51.108;13.622;2024-01-30T02:49:08;101824.63;;;2.33;54.35
68654;BME280;55636;51.108;13.622;2024-01-30T02:50:11;101828.22;;;2.34;54.25
68654;BME280;55636;51.108;13.622;2024-01-30T02:51:13;101827.19;;;2.35;54.21
68654;BME280;55636;51.108;13.622;2024-01-30T02:52:16;101821.72;;;2.35;54.24
68654;BME280;55636;51.108;13.622;2024-01-30T02:53:18;101823.63;;;2.34;54.06
68654;BME280;55636;51.108;13.622;2024-01-30T02:54:20;101822.94;;;2.32;54.12
68654;BME280;55636;51.108;13.622;2024-01-30T02:55:23;101825.47;;;2.34;54.01
68654;BME280;55636;51.108;13.622;2024-01-30T02:56:25;101831.94;;;2.33;54.13
68654;BME280;55636;51.108;13.622;2024-01-30T02:57:30;101818.31;;;2.33;54.11
68654;BME280;55636;51.108;13.622;2024-01-30T02:58:33;101829.75;;;2.28;54.25
68654;BME280;55636;51.108;13.622;2024-01-30T02:59:35;101824.47;;;2.26;54.31
68654;BME280;55636;51.108;13.622;2024-01-30T03:00:38;101828.22;;;2.25;54.30
68654;BME280;55636;51.108;13.622;2024-01-30T03:01:44;101827.38;;;2.25;54.39
68654;BME280;55636;51.108;13.622;2024-01-30T03:02:47;101828.56;;;2.22;54.43
68654;BME280;55636;51.108;13.622;2024-01-30T03:03:50;101828.56;;;2.22;54.42
68654;BME280;55636;51.108;13.622;2024-01-30T03:04:52;101824.78;;;2.23;54.50
68654;BME280;55636;51.108;13.622;2024-01-30T03:05:55;101836.41;;;2.25;54.41
68654;BME280;55636;51.108;13.622;2024-01-30T03:06:57;101823.78;;;2.24;54.50
68654;BME280;55636;51.108;13.622;2024-01-30T03:08:00;101819.69;;;2.29;54.43
68654;BME280;55636;51.108;13.622;2024-01-30T03:09:02;101819.53;;;2.30;54.39
68654;BME280;55636;51.108;13.622;2024-01-30T03:10:05;101820.56;;;2.29;54.45
68654;BME280;55636;51.108;13.622;2024-01-30T03:11:08;101817.81;;;2.29;54.39
68654;BME280;55636;51.108;13.622;2024-01-30T03:12:12;101821.03;;;2.24;54.53
68654;BME280;55636;51.108;13.622;2024-01-30T03:13:14;101813.56;;;2.26;54.38
68654;BME280;55636;51.108;13.622;2024-01-30T03:14:16;101817.31;;;2.25;54.54
68654;BME280;55636;51.108;13.622;2024-01-30T03:15:19;101813.75;;;2.25;54.46
68654;BME280;55636;51.108;13.622;2024-01-30T03:16:21;101817.13;;;2.27;54.23
68654;BME280;55636;51.108;13.622;2024-01-30T03:17:24;101812.53;;;2.27;54.41
68654;BME280;55636;51.108;13.622;2024-01-30T03:18:26;101816.47;;;2.25;54.37
68654;BME280;55636;51.108;13.622;2024-01-30T03:19:29;101823.09;;;2.22;54.42
68654;BME280;55636;51.108;13.622;2024-01-30T03:20:31;101820.53;;;2.21;54.44
68654;BME280;55636;51.108;13.622;2024-01-30T03:21:34;101821.03;;;2.24;54.34
68654;BME280;55636;51.108;13.622;2024-01-30T03:22:36;101820.53;;;2.21;54.36
68654;BME280;55636;51.108;13.622;2024-01-30T03:23:38;101814.75;;;2.24;54.48
68654;BME280;55636;51.108;13.622;2024-01-30T03:24:41;101818.50;;;2.23;54.41
68654;BME280;55636;51.108;13.622;2024-01-30T03:25:43;101817.66;;;2.22;54.43
68654;BME280;55636;51.108;13.622;2024-01-30T03:26:46;101815.06;;;2.21;54.53
68654;BME280;55636;51.108;13.622;2024-01-30T03:27:48;101816.97;;;2.20;54.54
68654;BME280;55636;51.108;13.622;2024-01-30T03:28:51;101817.47;;;2.24;54.36
68654;BME280;55636;51.108;13.622;2024-01-30T03:29:54;101813.22;;;2.21;54.56
68654;BME280;55636;51.108;13.622;2024-01-30T03:30:56;101814.75;;;2.24;54.42
68654;BME280;55636;51.108;13.622;2024-01-30T03:31:58;101810.13;;;2.24;54.26
68654;BME280;55636;51.108;13.622;2024-01-30T03:33:01;101816.59;;;2.23;54.33
68654;BME280;55636;51.108;13.622;2024-01-30T03:34:03;101816.25;;;2.18;54.60
68654;BME280;55636;51.108;13.622;2024-01-30T03:35:06;101810.81;;;2.18;54.60
68654;BME280;55636;51.108;13.622;2024-01-30T03:36:09;101813.38;;;2.20;54.62
68654;BME280;55636;51.108;13.622;2024-01-30T03:37:11;101819.00;;;2.18;54.58
68654;BME280;55636;51.108;13.622;2024-01-30T03:38:14;101809.78;;;2.19;54.46
68654;BME280;55636;51.108;13.622;2024-01-30T03:39:19;101816.44;;;2.17;54.53
68654;BME280;55636;51.108;13.622;2024-01-30T03:40:21;101817.97;;;2.19;54.49
68654;BME280;55636;51.108;13.622;2024-01-30T03:41:24;101813.53;;;2.18;54.56
68654;BME280;55636;51.108;13.622;2024-01-30T03:42:26;101825.13;;;2.20;54.47
68654;BME280;55636;51.108;13.622;2024-01-30T03:43:29;101823.44;;;2.19;54.42
68654;BME280;55636;51.108;13.622;2024-01-30T03:44:31;101817.97;;;2.19;54.48
68654;BME280;55636;51.108;13.622;2024-01-30T03:45:34;101813.38;;;2.20;54.65
68654;BME280;55636;51.108;13.622;2024-01-30T03:46:36;101817.78;;;2.21;54.58
68654;BME280;55636;51.108;13.622;2024-01-30T03:47:38;101818.66;;;2.21;54.48
68654;BME280;55636;51.108;13.622;2024-01-30T03:48:41;101815.41;;;2.18;54.73
68654;BME280;55636;51.108;13.622;2024-01-30T03:49:43;101815.41;;;2.18;54.75
68654;BME280;55636;51.108;13.622;2024-01-30T03:50:46;101803.31;;;2.12;54.72
68654;BME280;55636;51.108;13.622;2024-01-30T03:51:48;101810.31;;;2.15;54.80
68654;BME280;55636;51.108;13.622;2024-01-30T03:52:50;101820.34;;;2.14;54.62
68654;BME280;55636;51.108;13.622;2024-01-30T03:53:53;101813.19;;;2.13;54.77
68654;BME280;55636;51.108;13.622;2024-01-30T03:54:55;101816.78;;;2.14;54.60
68654;BME280;55636;51.108;13.622;2024-01-30T03:55:57;101812.00;;;2.16;54.70
68654;BME280;55636;51.108;13.622;2024-01-30T03:57:00;101816.63;;;2.15;54.57
68654;BME280;55636;51.108;13.622;2024-01-30T03:58:02;101811.50;;;2.12;54.66
68654;BME280;55636;51.108;13.622;2024-01-30T03:59:05;101816.78;;;2.14;54.68
68654;BME280;55636;51.108;13.622;2024-01-30T04:00:08;101817.09;;;2.10;54.72
68654;BME280;55636;51.108;13.622;2024-01-30T04:01:14;101812.00;;;2.07;54.84
68654;BME280;55636;51.108;13.622;2024-01-30T04:02:17;101818.16;;;2.09;54.80
68654;BME280;55636;51.108;13.622;2024-01-30T04:03:20;101808.09;;;2.10;54.84
68654;BME280;55636;51.108;13.622;2024-01-30T04:04:22;101802.28;;;2.13;54.79
68654;BME280;55636;51.108;13.622;2024-01-30T04:05:25;101806.06;;;2.12;54.78
68654;BME280;55636;51.108;13.622;2024-01-30T04:06:27;101810.47;;;2.13;54.82
68654;BME280;55636;51.108;13.622;2024-01-30T04:07:32;101805.53;;;2.08;54.71
68654;BME280;55636;51.108;13.622;2024-01-30T04:08:34;101809.09;;;2.09;54.99
68654;BME280;55636;51.108;13.622;2024-01-30T04:09:38;101807.25;;;2.09;54.85
68654;BME280;55636;51.108;13.622;2024-01-30T04:10:40;101808.78;;;2.12;54.68
68654;BME280;55636;51.108;13.622;2024-01-30T04:11:43;101808.91;;;2.10;54.64
68654;BME280;55636;51.108;13.622;2024-01-30T04:12:45;101804.69;;;2.08;54.96
68654;BME280;55636;51.108;13.622;2024-01-30T04:13:47;101808.91;;;2.10;54.80
68654;BME280;55636;51.108;13.622;2024-01-30T04:14:50;101813.53;;;2.10;54.81
68654;BME280;55636;51.108;13.622;2024-01-30T04:15:52;101809.28;;;2.07;54.87
68654;BME280;55636;51.108;13.622;2024-01-30T04:16:56;101802.97;;;2.07;54.84
68654;BME280;55636;51.108;13.622;2024-01-30T04:18:05;101811.81;;;2.09;54.67
68654;BME280;55636;51.108;13.622;2024-01-30T04:19:08;101812.88;;;2.08;54.76
68654;BME280;55636;51.108;13.622;2024-01-30T04:20:14;101814.72;;;2.07;54.93
68654;BME280;55636;51.108;13.622;2024-01-30T04:21:27;101815.91;;;2.05;54.85
68654;BME280;55636;51.108;13.622;2024-01-30T04:22:32;101812.16;;;2.06;54.99
68654;BME280;55636;51.108;13.622;2024-01-30T04:23:41;101813.19;;;2.05;54.88
68654;BME280;55636;51.108;13.622;2024-01-30T04:24:44;101814.06;;;2.05;54.86
68654;BME280;55636;51.108;13.622;2024-01-30T04:25:46;101813.19;;;2.05;54.82
68654;BME280;55636;51.108;13.622;2024-01-30T04:26:48;101807.91;;;2.03;54.80
68654;BME280;55636;51.108;13.622;2024-01-30T04:27:51;101814.19;;;2.04;54.84
68654;BME280;55636;51.108;13.622;2024-01-30T04:28:53;101808.75;;;2.04;55.03
68654;BME280;55636;51.108;13.622;2024-01-30T04:29:55;101804.16;;;2.04;54.78
68654;BME280;55636;51.108;13.622;2024-01-30T04:30:58;101802.47;;;2.03;54.96
68654;BME280;55636;51.108;13.622;2024-01-30T04:32:01;101803.66;;;2.01;55.01
68654;BME280;55636;51.108;13.622;2024-01-30T04:33:04;101808.41;;;1.99;55.06
68654;BME280;55636;51.108;13.622;2024-01-30T04:34:06;101814.91;;;1.98;55.22
68654;BME280;55636;51.108;13.622;2024-01-30T04:35:09;101805.53;;;2.00;55.04
68654;BME280;55636;51.108;13.622;2024-01-30T04:36:13;101807.91;;;2.03;54.94
68654;BME280;55636;51.108;13.622;2024-01-30T04:37:15;101800.22;;;1.99;55.20
68654;BME280;55636;51.108;13.622;2024-01-30T04:38:19;101803.66;;;1.92;55.31
68654;BME280;55636;51.108;13.622;2024-01-30T04:39:21;101799.03;;;1.93;55.14
68654;BME280;55636;51.108;13.622;2024-01-30T04:40:24;101802.09;;;1.90;55.29
68654;BME280;55636;51.108;13.622;2024-01-30T04:41:26;101797.31;;;1.92;55.31
68654;BME280;55636;51.108;13.622;2024-01-30T04:42:33;101798.50;;;1.89;55.29
68654;BME280;55636;51.108;13.622;2024-01-30T04:43:35;101802.59;;;1.85;55.50
68654;BME280;55636;51.108;13.622;2024-01-30T04:44:38;101810.41;;;1.88;55.34
68654;BME280;55636;51.108;13.622;2024-01-30T04:45:40;101805.31;;;1.85;55.52
68654;BME280;55636;51.108;13.622;2024-01-30T04:46:43;101803.59;;;1.84;55.53
68654;BME280;55636;51.108;13.622;2024-01-30T04:47:45;101797.97;;;1.86;55.32
68654;BME280;55636;51.108;13.622;2024-01-30T04:48:48;101812.47;;;1.86;55.42
68654;BME280;55636;51.108;13.622;2024-01-30T04:49:51;101800.03;;;1.84;55.50
68654;BME280;55636;51.108;13.622;2024-01-30T04:50:54;101799.69;;;1.87;55.42
68654;BME280;55636;51.108;13.622;2024-01-30T04:51:58;101800.72;;;1.86;55.53
68654;BME280;55636;51.108;13.622;2024-01-30T04:53:01;101802.59;;;1.85;55.53
68654;BME280;55636;51.108;13.622;2024-01-30T04:54:03;101796.47;;;1.83;55.48
68654;BME280;55636;51.108;13.622;2024-01-30T04:55:06;101805.31;;;1.85;55.45
68654;BME280;55636;51.108;13.622;2024-01-30T04:56:09;101799.19;;;1.83;55.37
68654;BME280;55636;51.108;13.622;2024-01-30T04:57:11;101797.50;;;1.82;55.62
68654;BME280;55636;51.108;13.622;2024-01-30T04:58:14;101797.66;;;1.81;55.48
68654;BME280;55636;51.108;13.622;2024-01-30T04:59:17;101792.88;;;1.83;55.55
68654;BME280;55636;51.108;13.622;2024-01-30T05:00:20;101797.50;;;1.82;55.57
68654;BME280;55636;51.108;13.622;2024-01-30T05:01:22;101793.91;;;1.82;55.70
68654;BME280;55636;51.108;13.622;2024-01-30T05:02:25;101796.97;;;1.79;55.65
68654;BME280;55636;51.108;13.622;2024-01-30T05:03:27;101799.53;;;1.80;55.58
68654;BME280;55636;51.108;13.622;2024-01-30T05:04:29;101796.47;;;1.83;55.53
68654;BME280;55636;51.108;13.622;2024-01-30T05:05:32;101796.78;;;1.80;55.60
68654;BME280;55636;51.108;13.622;2024-01-30T05:06:34;101802.94;;;1.82;55.75
68654;BME280;55636;51.108;13.622;2024-01-30T05:07:38;101795.06;;;1.79;55.69
68654;BME280;55636;51.108;13.622;2024-01-30T05:08:41;101795.78;;;1.81;55.75
68654;BME280;55636;51.108;13.622;2024-01-30T05:09:44;101795.06;;;1.79;55.77
68654;BME280;55636;51.108;13.622;2024-01-30T05:10:46;101796.44;;;1.75;55.81
68654;BME280;55636;51.108;13.622;2024-01-30T05:11:49;101797.63;;;1.72;55.79
68654;BME280;55636;51.108;13.622;2024-01-30T05:12:51;101798.50;;;1.73;55.79
68654;BME280;55636;51.108;13.622;2024-01-30T05:13:53;101800.69;;;1.69;55.87
68654;BME280;55636;51.108;13.622;2024-01-30T05:14:57;101796.94;;;1.70;55.98
68654;BME280;55636;51.108;13.622;2024-01-30T05:16:02;101799.69;;;1.70;55.92
68654;BME280;55636;51.108;13.622;2024-01-30T05:17:05;101803.59;;;1.68;55.99
68654;BME280;55636;51.108;13.622;2024-01-30T05:18:07;101792.53;;;1.69;56.00
68654;BME280;55636;51.108;13.622;2024-01-30T05:19:10;101792.69;;;1.68;56.06
68654;BME280;55636;51.108;13.622;2024-01-30T05:20:12;101787.91;;;1.70;55.94
68654;BME280;55636;51.108;13.622;2024-01-30T05:21:15;101795.78;;;1.73;56.10
68654;BME280;55636;51.108;13.622;2024-01-30T05:22:17;101799.34;;;1.73;55.81
68654;BME280;55636;51.108;13.622;2024-01-30T05:23:21;101797.97;;;1.77;55.74
68654;BME280;55636;51.108;13.622;2024-01-30T05:24:23;101801.03;;;1.74;55.83
68654;BME280;55636;51.108;13.622;2024-01-30T05:25:28;101799.16;;;1.75;56.04
68654;BME280;55636;51.108;13.622;2024-01-30T05:26:31;101792.00;;;1.74;55.97
68654;BME280;55636;51.108;13.622;2024-01-30T05:27:34;101790.81;;;1.76;55.99
68654;BME280;55636;51.108;13.622;2024-01-30T05:28:37;101801.72;;;1.76;55.89